createdAt,value
2023-05-19T00:01:31.282Z,100.00
2023-05-19T00:04:02.949Z,100.00
2023-05-19T00:06:34.272Z,100.00
2023-05-19T00:09:04.466Z,100.00
2023-05-19T00:11:36.385Z,100.00
2023-05-19T00:14:07.540Z,100.00
2023-05-19T00:16:36.400Z,100.00
2023-05-19T00:19:10.667Z,100.00
2023-05-19T00:21:41.290Z,100.00
2023-05-19T00:24:10.867Z,100.00
2023-05-19T00:26:39.889Z,100.00
2023-05-19T00:29:08.159Z,100.00
2023-05-19T00:31:36.815Z,100.00
2023-05-19T00:34:05.373Z,100.00
2023-05-19T00:36:33.836Z,100.00
2023-05-19T00:39:04.367Z,100.00
2023-05-19T00:41:32.809Z,100.00
2023-05-19T00:44:01.779Z,100.00
2023-05-19T00:46:31.105Z,100.00
2023-05-19T00:48:59.496Z,100.00
2023-05-19T00:51:29.870Z,100.00
2023-05-19T00:53:58.107Z,100.00
2023-05-19T00:56:30.584Z,100.00
2023-05-19T00:59:00.845Z,100.00
2023-05-19T01:01:29.461Z,100.00
2023-05-19T01:03:59.557Z,100.00
2023-05-19T01:06:30.069Z,100.00
2023-05-19T01:08:59.007Z,100.00
2023-05-19T01:11:33.096Z,100.00
2023-05-19T01:14:01.893Z,100.00
2023-05-19T01:16:36.844Z,100.00
2023-05-19T01:19:15.361Z,100.00
2023-05-19T01:22:15.924Z,100.00
2023-05-19T01:25:13.321Z,100.00
2023-05-19T01:28:00.241Z,100.00
2023-05-19T01:30:32.063Z,100.00
2023-05-19T01:33:06.890Z,100.00
2023-05-19T01:35:38.177Z,100.00
2023-05-19T01:38:11.148Z,100.00
2023-05-19T01:40:40.816Z,100.00
2023-05-19T01:43:12.040Z,100.00
2023-05-19T01:45:43.049Z,100.00
2023-05-19T01:48:12.274Z,100.00
2023-05-19T01:50:41.612Z,100.00
2023-05-19T01:53:14.856Z,100.00
2023-05-19T01:55:49.892Z,100.00
2023-05-19T01:58:24.296Z,100.00
2023-05-19T02:01:01.195Z,100.00
2023-05-19T02:03:44.218Z,100.00
2023-05-19T02:06:24.657Z,100.00
2023-05-19T02:09:00.080Z,100.00
2023-05-19T02:11:37.553Z,100.00
2023-05-19T02:14:14.276Z,100.00
2023-05-19T02:16:48.036Z,100.00
2023-05-19T02:19:24.643Z,100.00
2023-05-19T02:21:53.455Z,100.00
2023-05-19T02:24:23.971Z,100.00
2023-05-19T02:26:52.455Z,100.00
2023-05-19T02:29:23.860Z,100.00
2023-05-19T02:31:54.238Z,100.00
2023-05-19T02:34:23.044Z,100.00
2023-05-19T02:36:52.816Z,100.00
2023-05-19T02:39:22.292Z,100.00
2023-05-19T02:41:50.904Z,100.00
2023-05-19T02:44:19.275Z,100.00
2023-05-19T02:46:47.802Z,100.00
2023-05-19T02:49:17.787Z,100.00
2023-05-19T02:51:46.456Z,100.00
2023-05-19T02:54:14.836Z,100.00
2023-05-19T02:56:43.279Z,100.00
2023-05-19T02:59:11.494Z,100.00
2023-05-19T03:01:41.634Z,100.00
2023-05-19T03:04:09.988Z,100.00
2023-05-19T03:06:39.936Z,100.00
2023-05-19T03:09:09.645Z,100.00
2023-05-19T03:11:38.100Z,100.00
2023-05-19T03:14:07.032Z,100.00
2023-05-19T03:16:36.648Z,100.00
2023-05-19T03:19:06.222Z,100.00
2023-05-19T03:21:34.947Z,100.00
2023-05-19T03:24:05.528Z,100.00
2023-05-19T03:26:35.106Z,100.00
2023-05-19T03:29:03.384Z,100.00
2023-05-19T03:31:34.608Z,100.00
2023-05-19T03:34:03.791Z,100.00
2023-05-19T03:36:40.092Z,100.00
2023-05-19T03:39:10.219Z,100.00
2023-05-19T03:41:38.750Z,100.00
2023-05-19T03:44:09.761Z,100.00
2023-05-19T03:46:38.688Z,100.00
2023-05-19T03:49:07.778Z,100.00
2023-05-19T03:51:39.931Z,100.00
2023-05-19T03:54:10.151Z,100.00
2023-05-19T03:56:41.262Z,100.00
2023-05-19T03:59:10.805Z,100.00
2023-05-19T04:01:39.891Z,100.00
2023-05-19T04:04:09.412Z,100.00
2023-05-19T04:06:38.321Z,100.00
2023-05-19T04:09:15.568Z,100.00
2023-05-19T04:11:44.618Z,100.00
2023-05-19T04:14:14.927Z,100.00
2023-05-19T04:16:43.633Z,100.00
2023-05-19T04:19:12.071Z,100.00
2023-05-19T04:21:40.660Z,100.00
2023-05-19T04:24:09.490Z,100.00
2023-05-19T04:26:42.630Z,100.00
2023-05-19T04:29:10.944Z,100.00
2023-05-19T04:31:41.195Z,100.00
2023-05-19T04:34:10.283Z,100.00
2023-05-19T04:36:38.923Z,100.00
2023-05-19T04:39:10.078Z,100.00
2023-05-19T04:41:40.820Z,100.00
2023-05-19T04:44:09.613Z,100.00
2023-05-19T04:46:38.334Z,100.00
2023-05-19T04:49:07.306Z,100.00
2023-05-19T04:51:35.963Z,100.00
2023-05-19T04:54:06.563Z,100.00
2023-05-19T04:56:35.665Z,100.00
2023-05-19T04:59:05.667Z,100.00
2023-05-19T05:01:34.407Z,100.00
2023-05-19T05:04:06.554Z,100.00
2023-05-19T05:06:34.994Z,100.00
2023-05-19T05:09:04.661Z,100.00
2023-05-19T05:11:34.254Z,100.00
2023-05-19T05:14:03.761Z,100.00
2023-05-19T05:16:36.017Z,100.00
2023-05-19T05:19:04.910Z,100.00
2023-05-19T05:21:33.941Z,100.00
2023-05-19T05:24:03.325Z,100.00
2023-05-19T05:26:35.068Z,100.00
2023-05-19T05:29:03.604Z,100.00
2023-05-19T05:31:34.851Z,100.00
2023-05-19T05:34:03.375Z,100.00
2023-05-19T05:36:32.105Z,100.00
2023-05-19T05:39:02.514Z,100.00
2023-05-19T05:41:35.617Z,100.00
2023-05-19T05:44:09.230Z,100.00
2023-05-19T05:46:39.690Z,100.00
2023-05-19T05:49:08.584Z,100.00
2023-05-19T05:51:37.639Z,100.00
2023-05-19T05:54:08.810Z,100.00
2023-05-19T05:56:37.882Z,100.00
2023-05-19T05:59:06.585Z,100.00
2023-05-19T06:01:37.011Z,100.00
2023-05-19T06:04:07.385Z,100.00
2023-05-19T06:06:36.271Z,100.00
2023-05-19T06:09:04.717Z,100.00
2023-05-19T06:11:33.184Z,100.00
2023-05-19T06:14:01.630Z,100.00
2023-05-19T06:16:30.534Z,100.00
2023-05-19T06:18:59.433Z,100.00
2023-05-19T06:21:29.112Z,100.00
2023-05-19T06:23:57.615Z,100.00
2023-05-19T06:26:27.066Z,100.00
2023-05-19T06:28:55.537Z,100.00
2023-05-19T06:31:26.787Z,100.00
2023-05-19T06:33:55.198Z,100.00
2023-05-19T06:36:23.349Z,100.00
2023-05-19T06:38:53.461Z,100.00
2023-05-19T06:41:21.823Z,100.00
2023-05-19T06:43:49.968Z,100.00
2023-05-19T06:46:18.494Z,100.00
2023-05-19T06:48:47.093Z,100.00
2023-05-19T06:51:16.875Z,100.00
2023-05-19T06:53:45.345Z,100.00
2023-05-19T06:56:15.706Z,100.00
2023-05-19T06:58:44.029Z,100.00
2023-05-19T07:01:12.336Z,100.00
2023-05-19T07:03:40.691Z,100.00
2023-05-19T07:06:09.227Z,100.00
2023-05-19T07:08:38.034Z,100.00
2023-05-19T07:11:06.818Z,100.00
2023-05-19T07:13:38.187Z,100.00
2023-05-19T07:16:07.023Z,100.00
2023-05-19T07:18:35.745Z,100.00
2023-05-19T07:21:04.029Z,100.00
2023-05-19T07:23:32.517Z,98.59
2023-05-19T07:26:01.474Z,95.60
2023-05-19T07:28:29.706Z,94.94
2023-05-19T07:30:59.718Z,92.75
2023-05-19T07:33:28.360Z,93.21
2023-05-19T07:35:56.955Z,91.40
2023-05-19T07:38:25.462Z,92.87
2023-05-19T07:40:53.620Z,94.34
2023-05-19T07:43:22.049Z,91.96
2023-05-19T07:45:50.310Z,93.54
2023-05-19T07:48:22.658Z,92.81
2023-05-19T07:50:51.028Z,90.29
2023-05-19T07:53:20.460Z,88.95
2023-05-19T07:55:49.033Z,88.74
2023-05-19T07:58:17.632Z,90.09
2023-05-19T08:00:46.252Z,89.65
2023-05-19T08:03:18.094Z,89.64
2023-05-19T08:05:48.004Z,89.28
2023-05-19T08:08:17.115Z,85.25
2023-05-19T08:10:45.241Z,84.39
2023-05-19T08:13:13.950Z,88.04
2023-05-19T08:15:43.069Z,86.20
2023-05-19T08:18:11.840Z,83.17
2023-05-19T08:20:44.003Z,82.79
2023-05-19T08:23:14.764Z,80.71
2023-05-19T08:25:43.088Z,77.79
2023-05-19T08:28:11.409Z,81.14
2023-05-19T08:30:39.766Z,81.17
2023-05-19T08:33:08.715Z,77.35
2023-05-19T08:35:37.843Z,77.13
2023-05-19T08:38:05.963Z,76.33
2023-05-19T08:40:38.905Z,76.43
2023-05-19T08:43:07.652Z,75.41
2023-05-19T08:45:36.114Z,78.70
2023-05-19T08:48:05.750Z,78.82
2023-05-19T08:50:38.209Z,74.68
2023-05-19T08:53:28.901Z,70.77
2023-05-19T08:56:10.681Z,72.05
2023-05-19T08:58:41.530Z,73.51
2023-05-19T09:01:11.062Z,70.92
2023-05-19T09:03:39.981Z,67.52
2023-05-19T09:06:09.761Z,67.27
2023-05-19T09:08:38.238Z,65.81
2023-05-19T09:11:08.158Z,63.04
2023-05-19T09:13:36.763Z,62.00
2023-05-19T09:16:07.121Z,63.41
2023-05-19T09:18:35.788Z,64.14
2023-05-19T09:21:04.488Z,65.37
2023-05-19T09:23:34.529Z,66.95
2023-05-19T09:26:05.260Z,64.30
2023-05-19T09:28:37.201Z,65.68
2023-05-19T09:31:08.008Z,61.28
2023-05-19T09:33:37.862Z,63.97
2023-05-19T09:36:08.778Z,63.90
2023-05-19T09:38:37.983Z,66.46
2023-05-19T09:41:07.788Z,66.12
2023-05-19T09:43:38.109Z,60.65
2023-05-19T09:46:07.513Z,61.78
2023-05-19T09:48:37.214Z,55.81
2023-05-19T09:51:10.604Z,56.83
2023-05-19T09:53:39.250Z,58.35
2023-05-19T09:56:10.102Z,57.76
2023-05-19T09:58:43.843Z,52.93
2023-05-19T10:01:12.807Z,48.94
2023-05-19T10:03:42.052Z,45.80
2023-05-19T10:06:11.737Z,46.13
2023-05-19T10:08:42.569Z,45.48
2023-05-19T10:11:12.759Z,46.59
2023-05-19T10:13:43.628Z,45.35
2023-05-19T10:16:12.816Z,46.89
2023-05-19T10:18:42.450Z,44.27
2023-05-19T10:21:12.074Z,46.75
2023-05-19T10:23:40.591Z,45.29
2023-05-19T10:26:09.911Z,45.58
2023-05-19T10:28:41.501Z,45.51
2023-05-19T10:31:16.226Z,44.54
2023-05-19T10:34:02.391Z,46.00
2023-05-19T10:36:59.657Z,46.68
2023-05-19T10:39:31.222Z,42.74
2023-05-19T10:42:13.018Z,41.11
2023-05-19T10:44:55.073Z,38.52
2023-05-19T10:47:27.094Z,41.02
2023-05-19T10:49:56.089Z,39.99
2023-05-19T10:52:26.405Z,42.59
2023-05-19T10:54:55.443Z,41.66
2023-05-19T10:57:28.522Z,41.27
2023-05-19T10:59:57.910Z,40.52
2023-05-19T11:02:42.331Z,41.79
2023-05-19T11:05:13.099Z,41.59
2023-05-19T11:07:44.959Z,41.24
2023-05-19T11:10:14.297Z,41.09
2023-05-19T11:12:44.286Z,42.45
2023-05-19T11:15:14.457Z,40.83
2023-05-19T11:17:50.412Z,40.84
2023-05-19T11:20:25.872Z,40.47
2023-05-19T11:23:06.646Z,41.77
2023-05-19T11:25:46.219Z,43.13
2023-05-19T11:28:17.481Z,39.20
2023-05-19T11:30:50.834Z,39.51
2023-05-19T11:33:21.962Z,39.66
2023-05-19T11:35:52.742Z,40.65
2023-05-19T11:38:23.798Z,39.78
2023-05-19T11:40:55.250Z,41.55
2023-05-19T11:43:25.052Z,38.76
2023-05-19T11:45:57.292Z,38.16
2023-05-19T11:48:27.873Z,38.35
2023-05-19T11:50:59.406Z,38.58
2023-05-19T11:53:33.435Z,39.83
2023-05-19T11:56:05.658Z,41.06
2023-05-19T11:58:33.717Z,40.29
2023-05-19T12:01:05.543Z,39.42
2023-05-19T12:03:37.068Z,39.82
2023-05-19T12:06:08.669Z,39.62
2023-05-19T12:08:38.487Z,39.44
2023-05-19T12:11:08.139Z,38.14
2023-05-19T12:13:36.904Z,37.91
2023-05-19T12:16:06.079Z,40.06
2023-05-19T12:18:43.904Z,39.61
2023-05-19T12:21:12.550Z,38.26
2023-05-19T12:23:41.777Z,38.29
2023-05-19T12:26:09.904Z,38.57
2023-05-19T12:28:38.024Z,37.62
2023-05-19T12:31:07.618Z,39.07
2023-05-19T12:33:37.671Z,39.32
2023-05-19T12:36:09.256Z,38.89
2023-05-19T12:38:39.892Z,39.20
2023-05-19T12:41:08.285Z,40.81
2023-05-19T12:43:38.048Z,41.76
2023-05-19T12:46:12.530Z,43.48
2023-05-19T12:48:44.617Z,43.05
2023-05-19T12:51:18.432Z,41.09
2023-05-19T12:53:48.520Z,41.97
2023-05-19T12:56:19.011Z,41.50
2023-05-19T12:58:47.385Z,39.42
2023-05-19T13:01:18.943Z,40.30
2023-05-19T13:03:47.478Z,40.98
2023-05-19T13:06:17.759Z,43.93
2023-05-19T13:08:48.762Z,43.77
2023-05-19T13:11:19.586Z,43.49
2023-05-19T13:13:47.854Z,43.21
2023-05-19T13:16:17.921Z,41.30
2023-05-19T13:18:46.360Z,42.44
2023-05-19T13:21:15.213Z,43.50
2023-05-19T13:23:44.925Z,43.35
2023-05-19T13:26:14.398Z,44.77
2023-05-19T13:28:42.656Z,41.94
2023-05-19T13:31:11.848Z,42.64
2023-05-19T13:33:40.305Z,43.60
2023-05-19T13:36:08.756Z,43.06
2023-05-19T13:38:38.520Z,43.53
2023-05-19T13:41:09.461Z,45.09
2023-05-19T13:43:39.181Z,43.47
2023-05-19T13:46:07.307Z,44.99
2023-05-19T13:48:35.748Z,44.79
2023-05-19T13:51:04.061Z,43.98
2023-05-19T13:53:33.099Z,43.66
2023-05-19T13:56:02.141Z,44.43
2023-05-19T13:58:32.194Z,44.30
2023-05-19T14:01:00.528Z,43.48
2023-05-19T14:03:28.825Z,43.32
2023-05-19T14:05:57.486Z,41.08
2023-05-19T14:08:26.226Z,41.14
2023-05-19T14:10:56.392Z,41.67
2023-05-19T14:13:33.010Z,40.13
2023-05-19T14:16:05.217Z,40.32
2023-05-19T14:18:34.101Z,39.36
2023-05-19T14:21:02.400Z,38.79
2023-05-19T14:23:30.565Z,39.22
2023-05-19T14:25:58.735Z,37.81
2023-05-19T14:28:27.177Z,37.51
2023-05-19T14:30:55.657Z,38.38
2023-05-19T14:33:25.346Z,38.78
2023-05-19T14:36:00.077Z,38.32
2023-05-19T14:38:29.438Z,37.92
2023-05-19T14:40:59.371Z,36.64
2023-05-19T14:43:27.546Z,37.00
2023-05-19T14:45:56.229Z,36.77
2023-05-19T14:48:25.987Z,37.00
2023-05-19T14:50:54.932Z,36.78
2023-05-19T14:53:23.036Z,36.04
2023-05-19T14:55:51.821Z,35.82
2023-05-19T14:58:27.745Z,37.53
2023-05-19T15:00:59.221Z,37.02
2023-05-19T15:03:29.504Z,36.70
2023-05-19T15:05:58.010Z,38.48
2023-05-19T15:08:34.873Z,39.20
2023-05-19T15:11:09.253Z,38.21
2023-05-19T15:13:37.726Z,39.31
2023-05-19T15:16:17.413Z,37.60
2023-05-19T15:18:47.619Z,37.05
2023-05-19T15:21:16.178Z,37.43
2023-05-19T15:23:45.835Z,38.40
2023-05-19T15:26:14.787Z,37.65
2023-05-19T15:28:43.307Z,37.44
2023-05-19T15:31:11.534Z,37.44
2023-05-19T15:33:40.146Z,36.57
2023-05-19T15:36:13.280Z,36.52
2023-05-19T15:38:41.417Z,36.98
2023-05-19T15:41:13.090Z,37.53
2023-05-19T15:43:41.681Z,36.50
2023-05-19T15:46:10.224Z,36.65
2023-05-19T15:48:38.891Z,36.65
2023-05-19T15:51:07.533Z,35.89
2023-05-19T15:53:37.080Z,37.55
2023-05-19T15:56:06.002Z,37.52
2023-05-19T15:58:34.146Z,36.72
2023-05-19T16:01:02.861Z,37.24
2023-05-19T16:03:31.822Z,37.04
2023-05-19T16:06:00.976Z,36.94
2023-05-19T16:08:29.729Z,35.98
2023-05-19T16:10:59.430Z,37.05
2023-05-19T16:13:30.929Z,36.92
2023-05-19T16:15:59.180Z,37.36
2023-05-19T16:18:32.941Z,38.14
2023-05-19T16:21:01.456Z,37.12
2023-05-19T16:23:33.648Z,38.47
2023-05-19T16:26:03.812Z,38.09
2023-05-19T16:28:32.759Z,38.71
2023-05-19T16:31:01.237Z,38.05
2023-05-19T16:33:30.211Z,37.98
2023-05-19T16:36:00.000Z,38.39
2023-05-19T16:38:28.403Z,38.36
2023-05-19T16:40:56.668Z,38.79
2023-05-19T16:43:26.791Z,39.73
2023-05-19T16:45:57.297Z,40.82
2023-05-19T16:48:25.916Z,41.70
2023-05-19T16:50:54.254Z,41.10
2023-05-19T16:53:22.602Z,42.09
2023-05-19T16:55:51.016Z,42.67
2023-05-19T16:58:19.064Z,42.22
2023-05-19T17:00:53.071Z,42.32
2023-05-19T17:03:21.625Z,42.59
2023-05-19T17:05:50.202Z,42.17
2023-05-19T17:08:18.555Z,42.96
2023-05-19T17:10:46.828Z,43.05
2023-05-19T17:13:15.154Z,42.55
2023-05-19T17:15:44.494Z,43.90
2023-05-19T17:18:16.271Z,44.23
2023-05-19T17:20:44.700Z,44.68
2023-05-19T17:23:13.081Z,44.17
2023-05-19T17:25:41.550Z,43.66
2023-05-19T17:28:09.903Z,44.08
2023-05-19T17:30:40.881Z,43.56
2023-05-19T17:33:09.199Z,43.31
2023-05-19T17:35:39.054Z,44.50
2023-05-19T17:38:07.235Z,44.60
2023-05-19T17:40:36.059Z,44.26
2023-05-19T17:43:04.488Z,43.99
2023-05-19T17:45:32.739Z,43.42
2023-05-19T17:48:00.934Z,42.78
2023-05-19T17:50:29.353Z,43.96
2023-05-19T17:52:59.878Z,43.94
2023-05-19T17:55:31.184Z,43.64
2023-05-19T17:58:00.195Z,44.73
2023-05-19T18:00:30.552Z,43.64
2023-05-19T18:03:00.081Z,42.97
2023-05-19T18:05:29.362Z,42.04
2023-05-19T18:08:01.192Z,41.99
2023-05-19T18:10:29.771Z,41.75
2023-05-19T18:12:58.267Z,42.43
2023-05-19T18:15:26.759Z,42.61
2023-05-19T18:17:55.324Z,42.62
2023-05-19T18:20:24.118Z,41.75
2023-05-19T18:22:52.656Z,42.02
2023-05-19T18:25:22.868Z,42.17
2023-05-19T18:27:55.883Z,41.99
2023-05-19T18:30:24.420Z,41.59
2023-05-19T18:32:52.974Z,42.03
2023-05-19T18:35:21.734Z,42.03
2023-05-19T18:37:50.202Z,42.67
2023-05-19T18:40:18.764Z,42.75
2023-05-19T18:42:48.671Z,42.66
2023-05-19T18:45:17.100Z,44.00
2023-05-19T18:47:47.524Z,44.02
2023-05-19T18:50:15.838Z,44.51
2023-05-19T18:52:44.411Z,44.36
2023-05-19T18:55:13.239Z,45.74
2023-05-19T18:57:42.083Z,46.65
2023-05-19T19:00:14.926Z,47.66
2023-05-19T19:02:43.752Z,48.48
2023-05-19T19:05:13.904Z,49.95
2023-05-19T19:07:44.542Z,49.32
2023-05-19T19:10:13.184Z,49.28
2023-05-19T19:12:42.117Z,50.67
2023-05-19T19:15:13.946Z,51.18
2023-05-19T19:17:43.757Z,51.22
2023-05-19T19:20:13.084Z,51.39
2023-05-19T19:22:41.630Z,52.32
2023-05-19T19:25:10.611Z,52.26
2023-05-19T19:27:39.345Z,52.71
2023-05-19T19:30:09.232Z,53.69
2023-05-19T19:32:38.834Z,54.39
2023-05-19T19:35:08.089Z,54.68
2023-05-19T19:37:37.106Z,54.56
2023-05-19T19:40:06.475Z,55.20
2023-05-19T19:42:35.317Z,55.09
2023-05-19T19:45:03.853Z,55.04
2023-05-19T19:47:32.957Z,56.72
2023-05-19T19:50:06.267Z,57.66
2023-05-19T19:52:35.483Z,58.53
2023-05-19T19:55:03.767Z,59.38
2023-05-19T19:57:35.968Z,60.83
2023-05-19T20:00:08.369Z,61.92
2023-05-19T20:02:45.590Z,61.96
2023-05-19T20:05:25.598Z,61.64
2023-05-19T20:07:54.062Z,62.68
2023-05-19T20:10:24.120Z,63.96
2023-05-19T20:12:53.936Z,63.94
2023-05-19T20:15:24.556Z,64.42
2023-05-19T20:17:53.078Z,65.33
2023-05-19T20:20:21.872Z,67.39
2023-05-19T20:22:52.031Z,68.18
2023-05-19T20:25:21.069Z,68.29
2023-05-19T20:27:49.380Z,68.63
2023-05-19T20:30:17.738Z,69.91
2023-05-19T20:32:46.933Z,70.59
2023-05-19T20:35:16.897Z,71.93
2023-05-19T20:37:48.150Z,72.90
2023-05-19T20:40:18.989Z,73.29
2023-05-19T20:42:52.440Z,73.65
2023-05-19T20:45:21.612Z,74.72
2023-05-19T20:47:54.934Z,75.24
2023-05-19T20:50:23.522Z,75.50
2023-05-19T20:52:53.548Z,76.27
2023-05-19T20:55:23.979Z,76.55
2023-05-19T20:57:52.251Z,77.67
2023-05-19T21:00:21.311Z,78.82
2023-05-19T21:02:50.982Z,79.11
2023-05-19T21:05:19.351Z,81.70
2023-05-19T21:07:48.320Z,81.98
2023-05-19T21:10:30.497Z,82.46
2023-05-19T21:13:00.502Z,84.56
2023-05-19T21:15:28.823Z,85.60
2023-05-19T21:17:57.215Z,84.96
2023-05-19T21:20:26.674Z,85.88
2023-05-19T21:22:56.728Z,87.37
2023-05-19T21:25:25.172Z,87.80
2023-05-19T21:27:56.325Z,88.76
2023-05-19T21:30:26.786Z,91.63
2023-05-19T21:32:56.056Z,92.51
2023-05-19T21:35:24.538Z,92.56
2023-05-19T21:37:53.505Z,94.11
2023-05-19T21:40:23.057Z,94.18
2023-05-19T21:42:51.563Z,94.70
2023-05-19T21:45:20.227Z,95.94
2023-05-19T21:47:51.105Z,97.49
2023-05-19T21:50:19.867Z,97.25
2023-05-19T21:52:49.517Z,97.24
2023-05-19T21:55:17.919Z,97.31
2023-05-19T21:57:47.177Z,98.96
2023-05-19T22:00:16.641Z,100.00
2023-05-19T22:02:45.595Z,100.00
2023-05-19T22:05:15.545Z,100.00
2023-05-19T22:07:43.797Z,100.00
2023-05-19T22:10:13.821Z,100.00
2023-05-19T22:12:42.894Z,100.00
2023-05-19T22:15:13.884Z,100.00
2023-05-19T22:17:42.306Z,100.00
2023-05-19T22:20:11.156Z,100.00
2023-05-19T22:22:41.256Z,100.00
2023-05-19T22:25:10.195Z,100.00
2023-05-19T22:27:38.606Z,100.00
2023-05-19T22:30:08.357Z,100.00
2023-05-19T22:32:36.828Z,100.00
2023-05-19T22:35:06.771Z,100.00
2023-05-19T22:37:35.373Z,100.00
2023-05-19T22:40:07.369Z,100.00
2023-05-19T22:42:36.663Z,100.00
2023-05-19T22:45:05.335Z,100.00
2023-05-19T22:47:34.380Z,100.00
2023-05-19T22:50:03.387Z,100.00
2023-05-19T22:52:31.888Z,100.00
2023-05-19T22:55:01.454Z,100.00
2023-05-19T22:57:31.642Z,100.00
2023-05-19T22:59:59.730Z,100.00
2023-05-19T23:02:28.622Z,100.00
2023-05-19T23:05:00.654Z,100.00
2023-05-19T23:07:29.210Z,100.00
2023-05-19T23:09:57.974Z,100.00
2023-05-19T23:12:27.946Z,100.00
2023-05-19T23:14:59.388Z,100.00
2023-05-19T23:17:28.953Z,100.00
2023-05-19T23:19:57.700Z,100.00
2023-05-19T23:22:26.241Z,100.00
2023-05-19T23:24:54.722Z,100.00
2023-05-19T23:27:23.196Z,100.00
2023-05-19T23:29:52.495Z,100.00
2023-05-19T23:32:23.972Z,100.00
2023-05-19T23:34:52.585Z,100.00
2023-05-19T23:37:21.311Z,100.00
2023-05-19T23:39:50.114Z,100.00
2023-05-19T23:42:20.211Z,100.00
2023-05-19T23:44:48.715Z,100.00
2023-05-19T23:47:17.150Z,100.00
2023-05-19T23:49:47.361Z,100.00
2023-05-19T23:52:16.776Z,100.00
2023-05-19T23:54:45.204Z,100.00
2023-05-19T23:57:13.653Z,100.00
2023-05-19T23:59:42.075Z,100.00
